sensor_id;sensor_type;location;lat;lon;timestamp;pressure;altitude;pressure_sealevel;temperature;humidity
12868;BME280;33517;49.866;8.320;2022-10-16T00:02:25;100172.00;;;16.42;100.00
12868;BME280;33517;49.866;8.320;2022-10-16T00:05:17;100169.94;;;16.44;100.00
12868;BME280;33517;49.866;8.320;2022-10-16T00:08:10;100181.63;;;16.43;100.00
12868;BME280;33517;49.866;8.320;2022-10-16T00:11:05;100179.16;;;16.42;100.00
12868;BME280;33517;49.866;8.320;2022-10-16T00:13:59;100175.91;;;16.40;100.00
12868;BME280;33517;49.866;8.320;2022-10-16T00:16:51;100182.00;;;16.40;100.00
12868;BME280;33517;49.866;8.320;2022-10-16T00:19:44;100171.38;;;16.40;100.00
12868;BME280;33517;49.866;8.320;2022-10-16T00:22:36;100179.34;;;16.40;100.00
12868;BME280;33517;49.866;8.320;2022-10-16T00:25:28;100183.22;;;16.44;100.00
12868;BME280;33517;49.866;8.320;2022-10-16T00:28:23;100182.00;;;16.47;100.00
12868;BME280;33517;49.866;8.320;2022-10-16T00:31:16;100183.66;;;16.48;100.00
12868;BME280;33517;49.866;8.320;2022-10-16T00:34:08;100180.56;;;16.44;100.00
12868;BME280;33517;49.866;8.320;2022-10-16T00:37:02;100179.34;;;16.47;100.00
12868;BME280;33517;49.866;8.320;2022-10-16T00:39:54;100184.66;;;16.53;100.00
12868;BME280;33517;49.866;8.320;2022-10-16T00:42:46;100188.53;;;16.57;100.00
12868;BME280;33517;49.866;8.320;2022-10-16T00:45:38;100183.81;;;16.59;100.00
12868;BME280;33517;49.866;8.320;2022-10-16T00:48:30;100179.72;;;16.64;100.00
12868;BME280;33517;49.866;8.320;2022-10-16T00:51:25;100184.66;;;16.67;100.00
12868;BME280;33517;49.866;8.320;2022-10-16T00:54:21;100192.00;;;16.65;100.00
12868;BME280;33517;49.866;8.320;2022-10-16T00:57:14;100184.81;;;16.65;100.00
12868;BME280;33517;49.866;8.320;2022-10-16T01:00:08;100188.31;;;16.66;100.00
12868;BME280;33517;49.866;8.320;2022-10-16T01:03:02;100187.09;;;16.68;100.00
12868;BME280;33517;49.866;8.320;2022-10-16T01:06:06;100193.63;;;16.66;100.00
12868;BME280;33517;49.866;8.320;2022-10-16T01:09:09;100189.53;;;16.70;100.00
12868;BME280;33517;49.866;8.320;2022-10-16T01:12:10;100182.38;;;16.70;100.00
12868;BME280;33517;49.866;8.320;2022-10-16T01:15:10;100184.59;;;16.73;100.00
12868;BME280;33517;49.866;8.320;2022-10-16T01:18:05;100197.66;;;16.75;100.00
12868;BME280;33517;49.866;8.320;2022-10-16T01:21:03;100196.50;;;16.71;100.00
12868;BME280;33517;49.866;8.320;2022-10-16T01:24:02;100197.88;;;16.73;100.00
12868;BME280;33517;49.866;8.320;2022-10-16T01:27:06;100208.31;;;16.75;100.00
12868;BME280;33517;49.866;8.320;2022-10-16T01:30:04;100206.06;;;16.72;100.00
12868;BME280;33517;49.866;8.320;2022-10-16T01:33:01;100204.25;;;16.66;100.00
12868;BME280;33517;49.866;8.320;2022-10-16T01:35:58;100212.44;;;16.64;100.00
12868;BME280;33517;49.866;8.320;2022-10-16T01:38:54;100207.94;;;16.65;100.00
12868;BME280;33517;49.866;8.320;2022-10-16T01:41:52;100223.47;;;16.68;100.00
12868;BME280;33517;49.866;8.320;2022-10-16T01:44:48;100224.69;;;16.72;100.00
12868;BME280;33517;49.866;8.320;2022-10-16T01:47:41;100221.22;;;16.65;100.00
12868;BME280;33517;49.866;8.320;2022-10-16T01:50:37;100211.22;;;16.47;100.00
12868;BME280;33517;49.866;8.320;2022-10-16T01:53:31;100227.16;;;16.47;100.00
12868;BME280;33517;49.866;8.320;2022-10-16T01:56:25;100218.63;;;16.51;100.00
12868;BME280;33517;49.866;8.320;2022-10-16T01:59:20;100222.69;;;16.47;100.00
12868;BME280;33517;49.866;8.320;2022-10-16T02:02:15;100214.72;;;16.54;100.00
12868;BME280;33517;49.866;8.320;2022-10-16T02:05:14;100221.47;;;16.50;100.00
12868;BME280;33517;49.866;8.320;2022-10-16T02:08:07;100211.66;;;16.50;100.00
12868;BME280;33517;49.866;8.320;2022-10-16T02:11:00;100215.34;;;16.49;100.00
12868;BME280;33517;49.866;8.320;2022-10-16T02:13:55;100221.47;;;16.50;100.00
12868;BME280;33517;49.866;8.320;2022-10-16T02:16:50;100221.06;;;16.53;100.00
12868;BME280;33517;49.866;8.320;2022-10-16T02:19:44;100226.16;;;16.54;100.00
12868;BME280;33517;49.866;8.320;2022-10-16T02:22:39;100222.28;;;16.57;100.00
12868;BME280;33517;49.866;8.320;2022-10-16T02:25:35;100216.97;;;16.57;100.00
12868;BME280;33517;49.866;8.320;2022-10-16T02:28:34;100224.09;;;16.56;100.00
12868;BME280;33517;49.866;8.320;2022-10-16T02:31:31;100224.50;;;16.53;100.00
12868;BME280;33517;49.866;8.320;2022-10-16T02:34:26;100230.03;;;16.52;100.00
12868;BME280;33517;49.866;8.320;2022-10-16T02:37:20;100226.97;;;16.55;100.00
12868;BME280;33517;49.866;8.320;2022-10-16T02:40:12;100230.44;;;16.55;100.00
12868;BME280;33517;49.866;8.320;2022-10-16T02:43:05;100237.78;;;16.53;100.00
12868;BME280;33517;49.866;8.320;2022-10-16T02:45:56;100245.16;;;16.58;100.00
12868;BME280;33517;49.866;8.320;2022-10-16T02:48:48;100248.63;;;16.52;100.00
12868;BME280;33517;49.866;8.320;2022-10-16T02:51:40;100256.19;;;16.55;100.00
12868;BME280;33517;49.866;8.320;2022-10-16T02:54:33;100254.78;;;16.59;100.00
12868;BME280;33517;49.866;8.320;2022-10-16T02:57:25;100248.19;;;16.62;100.00
12868;BME280;33517;49.866;8.320;2022-10-16T03:00:17;100239.22;;;16.63;100.00
12868;BME280;33517;49.866;8.320;2022-10-16T03:03:09;100246.16;;;16.64;100.00
12868;BME280;33517;49.866;8.320;2022-10-16T03:06:01;100257.19;;;16.67;100.00
12868;BME280;33517;49.866;8.320;2022-10-16T03:08:53;100251.47;;;16.64;100.00
12868;BME280;33517;49.866;8.320;2022-10-16T03:11:46;100243.72;;;16.62;100.00
12868;BME280;33517;49.866;8.320;2022-10-16T03:14:38;100238.19;;;16.64;100.00
12868;BME280;33517;49.866;8.320;2022-10-16T03:17:31;100241.22;;;16.67;100.00
12868;BME280;33517;49.866;8.320;2022-10-16T03:20:23;100249.63;;;16.64;100.00
12868;BME280;33517;49.866;8.320;2022-10-16T03:23:15;100254.94;;;16.64;100.00
12868;BME280;33517;49.866;8.320;2022-10-16T03:26:07;100264.13;;;16.68;100.00
12868;BME280;33517;49.866;8.320;2022-10-16T03:29:00;100262.91;;;16.71;100.00
12868;BME280;33517;49.866;8.320;2022-10-16T03:31:53;100263.72;;;16.71;100.00
12868;BME280;33517;49.866;8.320;2022-10-16T03:34:45;100270.69;;;16.72;100.00
12868;BME280;33517;49.866;8.320;2022-10-16T03:37:37;100274.34;;;16.71;100.00
12868;BME280;33517;49.866;8.320;2022-10-16T03:40:28;100265.16;;;16.74;100.00
12868;BME280;33517;49.866;8.320;2022-10-16T03:43:22;100261.28;;;16.76;100.00
12868;BME280;33517;49.866;8.320;2022-10-16T03:46:15;100262.66;;;16.79;100.00
12868;BME280;33517;49.866;8.320;2022-10-16T03:49:07;100262.28;;;16.82;99.88
12868;BME280;33517;49.866;8.320;2022-10-16T03:51:59;100276.16;;;16.77;100.00
12868;BME280;33517;49.866;8.320;2022-10-16T03:54:51;100271.28;;;16.74;99.72
12868;BME280;33517;49.866;8.320;2022-10-16T03:57:43;100265.38;;;16.72;99.57
12868;BME280;33517;49.866;8.320;2022-10-16T04:00:35;100261.06;;;16.71;99.94
12868;BME280;33517;49.866;8.320;2022-10-16T04:03:28;100265.97;;;16.68;99.69
12868;BME280;33517;49.866;8.320;2022-10-16T04:06:20;100280.47;;;16.65;99.56
12868;BME280;33517;49.866;8.320;2022-10-16T04:09:12;100280.09;;;16.68;100.00
12868;BME280;33517;49.866;8.320;2022-10-16T04:12:03;100277.81;;;16.65;99.35
12868;BME280;33517;49.866;8.320;2022-10-16T04:14:55;100266.81;;;16.68;100.00
12868;BME280;33517;49.866;8.320;2022-10-16T04:17:47;100282.31;;;16.71;99.82
12868;BME280;33517;49.866;8.320;2022-10-16T04:20:40;100277.59;;;16.73;99.94
12868;BME280;33517;49.866;8.320;2022-10-16T04:23:32;100270.25;;;16.75;99.00
12868;BME280;33517;49.866;8.320;2022-10-16T04:26:24;100253.91;;;16.65;99.54
12868;BME280;33517;49.866;8.320;2022-10-16T04:29:16;100261.09;;;16.65;99.61
12868;BME280;33517;49.866;8.320;2022-10-16T04:32:08;100273.75;;;16.63;98.93
12868;BME280;33517;49.866;8.320;2022-10-16T04:35:00;100274.97;;;16.60;98.78
12868;BME280;33517;49.866;8.320;2022-10-16T04:37:57;100278.69;;;16.52;99.54
12868;BME280;33517;49.866;8.320;2022-10-16T04:40:49;100277.63;;;16.53;99.21
12868;BME280;33517;49.866;8.320;2022-10-16T04:43:41;100277.84;;;16.52;99.48
12868;BME280;33517;49.866;8.320;2022-10-16T04:46:32;100290.34;;;16.51;99.23
12868;BME280;33517;49.866;8.320;2022-10-16T04:49:24;100296.66;;;16.50;99.41
12868;BME280;33517;49.866;8.320;2022-10-16T04:52:16;100297.28;;;16.52;99.37
12868;BME280;33517;49.866;8.320;2022-10-16T04:55:10;100296.06;;;16.55;99.29
12868;BME280;33517;49.866;8.320;2022-10-16T04:58:02;100287.25;;;16.54;99.84
12868;BME280;33517;49.866;8.320;2022-10-16T05:00:54;100287.44;;;16.59;99.58
12868;BME280;33517;49.866;8.320;2022-10-16T05:03:46;100289.09;;;16.61;99.73
12868;BME280;33517;49.866;8.320;2022-10-16T05:06:38;100301.56;;;16.60;99.72
12868;BME280;33517;49.866;8.320;2022-10-16T05:09:30;100297.06;;;16.54;99.44
12868;BME280;33517;49.866;8.320;2022-10-16T05:12:23;100299.94;;;16.52;100.00
12868;BME280;33517;49.866;8.320;2022-10-16T05:15:15;100305.25;;;16.52;100.00
12868;BME280;33517;49.866;8.320;2022-10-16T05:18:08;100303.41;;;16.53;99.92
12868;BME280;33517;49.866;8.320;2022-10-16T05:21:00;100292.56;;;16.48;99.84
12868;BME280;33517;49.866;8.320;2022-10-16T05:23:53;100295.81;;;16.37;99.60
12868;BME280;33517;49.866;8.320;2022-10-16T05:26:44;100289.47;;;16.25;100.00
12868;BME280;33517;49.866;8.320;2022-10-16T05:29:38;100286.81;;;16.12;99.81
12868;BME280;33517;49.866;8.320;2022-10-16T05:32:29;100286.63;;;16.00;100.00
12868;BME280;33517;49.866;8.320;2022-10-16T05:35:21;100302.94;;;15.91;100.00
12868;BME280;33517;49.866;8.320;2022-10-16T05:38:13;100308.25;;;15.84;100.00
12868;BME280;33517;49.866;8.320;2022-10-16T05:41:05;100308.44;;;15.89;100.00
12868;BME280;33517;49.866;8.320;2022-10-16T05:43:58;100306.81;;;15.95;100.00
12868;BME280;33517;49.866;8.320;2022-10-16T05:46:51;100312.38;;;16.00;100.00
12868;BME280;33517;49.866;8.320;2022-10-16T05:49:43;100324.22;;;16.04;100.00
12868;BME280;33517;49.866;8.320;2022-10-16T05:52:34;100334.00;;;16.10;100.00
12868;BME280;33517;49.866;8.320;2022-10-16T05:55:26;100345.84;;;16.14;100.00
12868;BME280;33517;49.866;8.320;2022-10-16T05:58:18;100339.72;;;16.20;100.00
12868;BME280;33517;49.866;8.320;2022-10-16T06:01:12;100357.09;;;16.22;100.00
12868;BME280;33517;49.866;8.320;2022-10-16T06:04:05;100359.34;;;16.25;100.00
12868;BME280;33517;49.866;8.320;2022-10-16T06:06:58;100362.41;;;16.29;100.00
12868;BME280;33517;49.866;8.320;2022-10-16T06:09:51;100358.94;;;16.35;100.00
12868;BME280;33517;49.866;8.320;2022-10-16T06:12:43;100353.66;;;16.41;100.00
12868;BME280;33517;49.866;8.320;2022-10-16T06:15:35;100356.72;;;16.45;100.00
12868;BME280;33517;49.866;8.320;2022-10-16T06:18:27;100359.16;;;16.46;100.00
12868;BME280;33517;49.866;8.320;2022-10-16T06:21:23;100345.69;;;16.48;100.00
12868;BME280;33517;49.866;8.320;2022-10-16T06:24:16;100352.84;;;16.47;100.00
12868;BME280;33517;49.866;8.320;2022-10-16T06:27:07;100359.41;;;16.51;100.00
12868;BME280;33517;49.866;8.320;2022-10-16T06:29:59;100355.28;;;16.55;100.00
12868;BME280;33517;49.866;8.320;2022-10-16T06:32:51;100353.25;;;16.57;100.00
12868;BME280;33517;49.866;8.320;2022-10-16T06:35:43;100353.06;;;16.59;100.00
12868;BME280;33517;49.866;8.320;2022-10-16T06:38:37;100350.41;;;16.59;100.00
12868;BME280;33517;49.866;8.320;2022-10-16T06:41:29;100363.69;;;16.59;100.00
12868;BME280;33517;49.866;8.320;2022-10-16T06:44:21;100363.50;;;16.61;100.00
12868;BME280;33517;49.866;8.320;2022-10-16T06:47:13;100355.91;;;16.64;100.00
12868;BME280;33517;49.866;8.320;2022-10-16T06:50:05;100362.47;;;16.68;100.00
12868;BME280;33517;49.866;8.320;2022-10-16T06:52:58;100377.97;;;16.71;100.00
12868;BME280;33517;49.866;8.320;2022-10-16T06:55:51;100366.72;;;16.69;100.00
12868;BME280;33517;49.866;8.320;2022-10-16T06:58:43;100373.50;;;16.72;100.00
12868;BME280;33517;49.866;8.320;2022-10-16T07:01:35;100373.50;;;16.78;100.00
12868;BME280;33517;49.866;8.320;2022-10-16T07:04:27;100378.59;;;16.80;100.00
12868;BME280;33517;49.866;8.320;2022-10-16T07:07:19;100401.47;;;16.81;100.00
12868;BME280;33517;49.866;8.320;2022-10-16T07:10:10;100386.97;;;16.83;100.00
12868;BME280;33517;49.866;8.320;2022-10-16T07:13:04;100394.72;;;16.85;100.00
12868;BME280;33517;49.866;8.320;2022-10-16T07:15:57;100402.28;;;16.94;100.00
12868;BME280;33517;49.866;8.320;2022-10-16T07:18:49;100404.56;;;16.97;100.00
12868;BME280;33517;49.866;8.320;2022-10-16T07:21:44;100414.56;;;16.95;100.00
12868;BME280;33517;49.866;8.320;2022-10-16T07:24:36;100404.97;;;17.01;100.00
12868;BME280;33517;49.866;8.320;2022-10-16T07:27:28;100410.28;;;17.01;100.00
12868;BME280;33517;49.866;8.320;2022-10-16T07:30:21;100414.34;;;17.10;100.00
12868;BME280;33517;49.866;8.320;2022-10-16T07:33:13;100425.16;;;17.15;100.00
12868;BME280;33517;49.866;8.320;2022-10-16T07:36:05;100420.88;;;17.20;100.00
12868;BME280;33517;49.866;8.320;2022-10-16T07:38:57;100422.91;;;17.25;100.00
12868;BME280;33517;49.866;8.320;2022-10-16T07:41:49;100433.13;;;17.34;100.00
12868;BME280;33517;49.866;8.320;2022-10-16T07:44:40;100434.16;;;17.27;100.00
12868;BME280;33517;49.866;8.320;2022-10-16T07:47:34;100439.69;;;17.25;100.00
12868;BME280;33517;49.866;8.320;2022-10-16T07:50:26;100447.88;;;17.24;100.00
12868;BME280;33517;49.866;8.320;2022-10-16T07:53:17;100443.78;;;17.28;100.00
12868;BME280;33517;49.866;8.320;2022-10-16T07:56:10;100445.44;;;17.16;100.00
12868;BME280;33517;49.866;8.320;2022-10-16T07:59:03;100446.66;;;17.20;100.00
12868;BME280;33517;49.866;8.320;2022-10-16T08:01:54;100449.50;;;17.31;100.00
12868;BME280;33517;49.866;8.320;2022-10-16T08:04:48;100460.94;;;17.38;100.00
12868;BME280;33517;49.866;8.320;2022-10-16T08:07:40;100457.06;;;17.34;100.00
12868;BME280;33517;49.866;8.320;2022-10-16T08:10:32;100460.53;;;17.28;100.00
12868;BME280;33517;49.866;8.320;2022-10-16T08:13:25;100477.31;;;17.29;100.00
12868;BME280;33517;49.866;8.320;2022-10-16T08:16:17;100479.78;;;17.24;100.00
12868;BME280;33517;49.866;8.320;2022-10-16T08:19:09;100482.03;;;17.27;100.00
12868;BME280;33517;49.866;8.320;2022-10-16T08:22:02;100491.66;;;17.21;100.00
12868;BME280;33517;49.866;8.320;2022-10-16T08:24:54;100504.75;;;17.16;100.00
12868;BME280;33517;49.866;8.320;2022-10-16T08:27:46;100501.88;;;17.11;100.00
12868;BME280;33517;49.866;8.320;2022-10-16T08:30:38;100495.34;;;17.20;100.00
12868;BME280;33517;49.866;8.320;2022-10-16T08:33:30;100503.53;;;17.32;100.00
12868;BME280;33517;49.866;8.320;2022-10-16T08:36:21;100511.66;;;17.43;100.00
12868;BME280;33517;49.866;8.320;2022-10-16T08:39:15;100520.09;;;17.54;100.00
12868;BME280;33517;49.866;8.320;2022-10-16T08:42:15;100517.81;;;17.64;100.00
12868;BME280;33517;49.866;8.320;2022-10-16T08:45:19;100511.28;;;17.66;100.00
12868;BME280;33517;49.866;8.320;2022-10-16T08:48:18;100526.78;;;17.82;100.00
12868;BME280;33517;49.866;8.320;2022-10-16T08:51:18;100530.25;;;17.89;100.00
12868;BME280;33517;49.866;8.320;2022-10-16T08:54:22;100531.88;;;17.97;100.00
12868;BME280;33517;49.866;8.320;2022-10-16T08:57:20;100530.16;;;18.15;100.00
12868;BME280;33517;49.866;8.320;2022-10-16T09:00:13;100532.69;;;18.41;100.00
12868;BME280;33517;49.866;8.320;2022-10-16T09:03:13;100548.03;;;18.53;100.00
12868;BME280;33517;49.866;8.320;2022-10-16T09:06:21;100542.91;;;18.58;100.00
12868;BME280;33517;49.866;8.320;2022-10-16T09:09:30;100549.97;;;18.77;100.00
12868;BME280;33517;49.866;8.320;2022-10-16T09:12:27;100563.06;;;19.65;100.00
12868;BME280;33517;49.866;8.320;2022-10-16T09:15:29;100565.22;;;20.29;99.15
12868;BME280;33517;49.866;8.320;2022-10-16T09:18:29;100565.09;;;20.72;97.66
12868;BME280;33517;49.866;8.320;2022-10-16T09:21:25;100569.59;;;21.77;94.20
12868;BME280;33517;49.866;8.320;2022-10-16T09:24:22;100561.44;;;23.19;90.38
12868;BME280;33517;49.866;8.320;2022-10-16T09:27:15;100572.31;;;23.79;86.57
12868;BME280;33517;49.866;8.320;2022-10-16T09:30:12;100579.75;;;23.22;89.02
12868;BME280;33517;49.866;8.320;2022-10-16T09:33:05;100592.06;;;22.90;90.47
12868;BME280;33517;49.866;8.320;2022-10-16T09:35:58;100590.22;;;23.52;88.70
12868;BME280;33517;49.866;8.320;2022-10-16T09:39:02;100595.66;;;26.60;81.05
12868;BME280;33517;49.866;8.320;2022-10-16T09:41:55;100598.97;;;28.03;74.25
12868;BME280;33517;49.866;8.320;2022-10-16T09:44:49;100591.81;;;26.46;76.32
12868;BME280;33517;49.866;8.320;2022-10-16T09:47:42;100594.31;;;24.74;80.49
12868;BME280;33517;49.866;8.320;2022-10-16T09:50:34;100588.97;;;23.76;82.86
12868;BME280;33517;49.866;8.320;2022-10-16T09:53:40;100592.94;;;23.24;84.20
12868;BME280;33517;49.866;8.320;2022-10-16T09:56:34;100598.69;;;22.71;85.16
12868;BME280;33517;49.866;8.320;2022-10-16T09:59:28;100606.78;;;22.48;85.33
12868;BME280;33517;49.866;8.320;2022-10-16T10:02:27;100610.59;;;22.24;85.77
12868;BME280;33517;49.866;8.320;2022-10-16T10:05:22;100617.59;;;22.02;86.25
12868;BME280;33517;49.866;8.320;2022-10-16T10:08:18;100611.06;;;21.97;85.96
12868;BME280;33517;49.866;8.320;2022-10-16T10:11:10;100607.69;;;21.67;85.97
12868;BME280;33517;49.866;8.320;2022-10-16T10:14:05;100601.81;;;21.24;86.15
12868;BME280;33517;49.866;8.320;2022-10-16T10:17:13;100603.03;;;20.80;87.72
12868;BME280;33517;49.866;8.320;2022-10-16T10:20:22;100598.31;;;20.94;87.70
12868;BME280;33517;49.866;8.320;2022-10-16T10:23:20;100593.66;;;20.89;87.89
12868;BME280;33517;49.866;8.320;2022-10-16T10:26:16;100601.88;;;21.06;87.40
12868;BME280;33517;49.866;8.320;2022-10-16T10:29:19;100595.69;;;22.05;85.39
12868;BME280;33517;49.866;8.320;2022-10-16T10:32:26;100594.81;;;22.39;84.70
12868;BME280;33517;49.866;8.320;2022-10-16T10:35:22;100595.69;;;22.67;83.76
12868;BME280;33517;49.866;8.320;2022-10-16T10:38:27;100602.28;;;24.69;79.15
12868;BME280;33517;49.866;8.320;2022-10-16T10:41:36;100599.59;;;24.04;79.20
12868;BME280;33517;49.866;8.320;2022-10-16T10:44:43;100595.69;;;23.95;79.72
12868;BME280;33517;49.866;8.320;2022-10-16T10:47:47;100602.38;;;24.09;78.81
12868;BME280;33517;49.866;8.320;2022-10-16T10:50:48;100596.63;;;24.44;77.26
12868;BME280;33517;49.866;8.320;2022-10-16T10:53:45;100597.97;;;23.87;77.78
12868;BME280;33517;49.866;8.320;2022-10-16T10:56:46;100595.66;;;23.57;79.69
12868;BME280;33517;49.866;8.320;2022-10-16T11:00:00;100594.28;;;23.71;80.08
12868;BME280;33517;49.866;8.320;2022-10-16T11:03:05;100604.06;;;23.99;78.50
12868;BME280;33517;49.866;8.320;2022-10-16T11:06:06;100597.34;;;23.79;77.99
12868;BME280;33517;49.866;8.320;2022-10-16T11:09:03;100596.13;;;23.37;79.35
12868;BME280;33517;49.866;8.320;2022-10-16T11:12:05;100603.78;;;23.01;79.90
12868;BME280;33517;49.866;8.320;2022-10-16T11:15:02;100596.16;;;22.53;80.76
12868;BME280;33517;49.866;8.320;2022-10-16T11:18:04;100604.25;;;22.30;81.99
12868;BME280;33517;49.866;8.320;2022-10-16T11:21:00;100597.28;;;22.29;81.92
12868;BME280;33517;49.866;8.320;2022-10-16T11:23:58;100602.56;;;22.24;81.89
12868;BME280;33517;49.866;8.320;2022-10-16T11:26:53;100608.97;;;22.11;82.58
12868;BME280;33517;49.866;8.320;2022-10-16T11:29:52;100595.81;;;22.49;81.69
12868;BME280;33517;49.866;8.320;2022-10-16T11:32:54;100601.56;;;22.41;81.43
12868;BME280;33517;49.866;8.320;2022-10-16T11:35:55;100600.59;;;22.59;81.22
12868;BME280;33517;49.866;8.320;2022-10-16T11:38:56;100594.50;;;23.53;79.55
12868;BME280;33517;49.866;8.320;2022-10-16T11:41:51;100590.91;;;25.42;76.38
12868;BME280;33517;49.866;8.320;2022-10-16T11:44:51;100590.16;;;26.35;74.10
12868;BME280;33517;49.866;8.320;2022-10-16T11:47:50;100589.13;;;29.58;64.42
12868;BME280;33517;49.866;8.320;2022-10-16T11:50:50;100583.66;;;28.42;65.50
12868;BME280;33517;49.866;8.320;2022-10-16T11:53:52;100574.94;;;28.60;66.84
12868;BME280;33517;49.866;8.320;2022-10-16T11:56:46;100573.91;;;27.32;67.98
12868;BME280;33517;49.866;8.320;2022-10-16T11:59:44;100587.31;;;28.12;67.17
12868;BME280;33517;49.866;8.320;2022-10-16T12:02:48;100579.81;;;27.54;67.93
12868;BME280;33517;49.866;8.320;2022-10-16T12:05:55;100573.84;;;26.82;66.79
12868;BME280;33517;49.866;8.320;2022-10-16T12:08:52;100583.34;;;27.55;66.37
12868;BME280;33517;49.866;8.320;2022-10-16T12:11:45;100573.31;;;26.85;62.52
12868;BME280;33517;49.866;8.320;2022-10-16T12:14:39;100571.72;;;26.12;63.28
12868;BME280;33517;49.866;8.320;2022-10-16T12:17:38;100563.06;;;27.62;62.52
12868;BME280;33517;49.866;8.320;2022-10-16T12:20:32;100572.78;;;29.40;56.70
12868;BME280;33517;49.866;8.320;2022-10-16T12:23:27;100575.72;;;29.43;57.95
12868;BME280;33517;49.866;8.320;2022-10-16T12:26:27;100573.88;;;28.56;55.38
12868;BME280;33517;49.866;8.320;2022-10-16T12:29:32;100570.91;;;27.69;58.95
12868;BME280;33517;49.866;8.320;2022-10-16T12:32:29;100574.72;;;27.38;57.71
12868;BME280;33517;49.866;8.320;2022-10-16T12:35:24;100582.03;;;25.83;61.20
12868;BME280;33517;49.866;8.320;2022-10-16T12:38:18;100588.16;;;25.37;62.32
12868;BME280;33517;49.866;8.320;2022-10-16T12:41:11;100583.34;;;24.59;65.00
12868;BME280;33517;49.866;8.320;2022-10-16T12:44:22;100582.47;;;24.53;66.07
12868;BME280;33517;49.866;8.320;2022-10-16T12:47:22;100575.69;;;23.69;68.95
12868;BME280;33517;49.866;8.320;2022-10-16T12:50:27;100574.13;;;23.90;69.12
12868;BME280;33517;49.866;8.320;2022-10-16T12:53:20;100581.63;;;23.71;69.54
12868;BME280;33517;49.866;8.320;2022-10-16T12:56:19;100572.72;;;23.33;71.22
12868;BME280;33517;49.866;8.320;2022-10-16T12:59:23;100568.53;;;23.25;71.08
12868;BME280;33517;49.866;8.320;2022-10-16T13:02:44;100574.47;;;23.60;70.46
12868;BME280;33517;49.866;8.320;2022-10-16T13:05:49;100582.38;;;23.67;70.10
12868;BME280;33517;49.866;8.320;2022-10-16T13:09:04;100581.97;;;23.75;70.46
12868;BME280;33517;49.866;8.320;2022-10-16T13:12:15;100570.06;;;23.71;70.78
12868;BME280;33517;49.866;8.320;2022-10-16T13:15:29;100582.75;;;23.75;70.57
12868;BME280;33517;49.866;8.320;2022-10-16T13:18:29;100592.31;;;23.33;71.81
12868;BME280;33517;49.866;8.320;2022-10-16T13:21:34;100585.28;;;23.16;72.75
12868;BME280;33517;49.866;8.320;2022-10-16T13:24:46;100591.44;;;23.00;72.94
12868;BME280;33517;49.866;8.320;2022-10-16T13:27:46;100593.53;;;22.81;73.86
12868;BME280;33517;49.866;8.320;2022-10-16T13:30:50;100588.00;;;22.59;74.54
12868;BME280;33517;49.866;8.320;2022-10-16T13:33:45;100587.94;;;22.43;75.53
12868;BME280;33517;49.866;8.320;2022-10-16T13:36:44;100593.44;;;22.25;76.00
12868;BME280;33517;49.866;8.320;2022-10-16T13:39:36;100585.41;;;22.13;76.47
12868;BME280;33517;49.866;8.320;2022-10-16T13:42:29;100581.13;;;22.01;77.05
12868;BME280;33517;49.866;8.320;2022-10-16T13:45:22;100587.09;;;21.91;77.75
12868;BME280;33517;49.866;8.320;2022-10-16T13:48:16;100584.28;;;21.86;78.31
12868;BME280;33517;49.866;8.320;2022-10-16T13:51:13;100583.94;;;21.82;78.60
12868;BME280;33517;49.866;8.320;2022-10-16T13:54:05;100581.84;;;21.84;78.64
12868;BME280;33517;49.866;8.320;2022-10-16T13:57:04;100575.19;;;21.98;78.48
12868;BME280;33517;49.866;8.320;2022-10-16T13:59:57;100565.13;;;22.17;78.28
12868;BME280;33517;49.866;8.320;2022-10-16T14:02:55;100555.00;;;22.47;77.85
12868;BME280;33517;49.866;8.320;2022-10-16T14:05:52;100556.53;;;23.00;77.24
12868;BME280;33517;49.866;8.320;2022-10-16T14:08:45;100563.25;;;23.30;76.72
12868;BME280;33517;49.866;8.320;2022-10-16T14:11:44;100568.84;;;23.29;76.51
12868;BME280;33517;49.866;8.320;2022-10-16T14:14:41;100587.69;;;23.01;77.08
12868;BME280;33517;49.866;8.320;2022-10-16T14:17:35;100579.00;;;22.65;77.78
12868;BME280;33517;49.866;8.320;2022-10-16T14:20:29;100581.97;;;22.41;79.39
12868;BME280;33517;49.866;8.320;2022-10-16T14:23:29;100589.16;;;22.52;79.43
12868;BME280;33517;49.866;8.320;2022-10-16T14:26:23;100585.25;;;22.43;79.44
12868;BME280;33517;49.866;8.320;2022-10-16T14:29:19;100587.13;;;22.31;79.59
12868;BME280;33517;49.866;8.320;2022-10-16T14:32:22;100589.00;;;22.19;79.97
12868;BME280;33517;49.866;8.320;2022-10-16T14:35:23;100580.53;;;22.10;80.13
12868;BME280;33517;49.866;8.320;2022-10-16T14:38:18;100585.09;;;22.10;80.19
12868;BME280;33517;49.866;8.320;2022-10-16T14:41:12;100586.59;;;22.06;80.16
12868;BME280;33517;49.866;8.320;2022-10-16T14:44:04;100593.59;;;22.07;80.26
12868;BME280;33517;49.866;8.320;2022-10-16T14:46:56;100582.97;;;22.12;80.43
12868;BME280;33517;49.866;8.320;2022-10-16T14:49:50;100585.41;;;22.13;80.47
12868;BME280;33517;49.866;8.320;2022-10-16T14:52:42;100576.19;;;22.21;80.23
12868;BME280;33517;49.866;8.320;2022-10-16T14:55:36;100580.81;;;22.37;80.35
12868;BME280;33517;49.866;8.320;2022-10-16T14:58:29;100578.22;;;22.42;80.19
12868;BME280;33517;49.866;8.320;2022-10-16T15:01:21;100581.53;;;22.32;80.24
12868;BME280;33517;49.866;8.320;2022-10-16T15:04:13;100587.28;;;22.13;80.59
12868;BME280;33517;49.866;8.320;2022-10-16T15:07:07;100598.25;;;21.99;80.97
12868;BME280;33517;49.866;8.320;2022-10-16T15:09:59;100598.16;;;21.83;81.68
12868;BME280;33517;49.866;8.320;2022-10-16T15:12:51;100598.22;;;21.65;82.88